Alar, China
Current Conditions -  °F | °C
As of 4:00 AM on Thursday 29 Jan 2015 (Local Time) from ZWSH Reporting Station
Light Snow Light Snow  
Wind Chill: 17°   Ceiling: NA
Heat Index: 23°   Visibility: NA
Dew Point: 21°   Wind: 4mph
Humidity: 93%   Direction: 90°E
Pressure: 30.27"   Gusts: NA
Location:  40.5°N, 81.05°E
Report Text: ZWSH 282000Z AUTO 09002MPS //// -SN BR M05/M06 Q1025
Loading
Personal Weather Stations






























Interactive Weather Map New forecast layout! Learn more

10-Day Weather Forecast

Advertisements
Track Severe Weather on mobile